Rush City, MN

4:04 PM CST on December 22, 2014 (GMT -0600)
Cambridge Municipal | Change Station
CLOSE
Current Station
Airport
Location: Cambridge,
Elevation: 945 ft
Nearby Weather Stations

Elev 945 ft 45.56 °N, 93.26 °W | Updated 8 minutes ago

Rain
Rain
36 °F
Feels Like 30 °F
N
7
Wind Variable Wind from East

Today
High -- | Low -- °F
--% Chance of Precip.
Yesterday
High -- | Low -- °F
Precip. -- in
7:50 AM 4:30 PM
New Moon, 1% visible
Pressure 29.60 in
Visibility 1.8 miles
Clouds Overcast 600 ft
Windchill 30 °F
Dew Point 28 °F
Humidity 75%
Rainfall 0.17 in
Snow Depth Not available.
UV 0 out of 12
Pollen .10 out of 12
Air Quality Not available.
Flu Activity Not available.
METAR KCBG 222156Z AUTO 09006KT 1 3/4SM UP OVC006 02/M02 A2960 RMK AO2

More Conditions Fewer Conditions

Pressure 29.60 in
Visibility 1.8 miles
Clouds Overcast 600 ft
Windchill 30 °F
Dew Point 28 °F
Humidity 75%
Rainfall 0.17 in
Snow Depth Not available.
UV 0 out of 12
Pollen .10 out of 12
Air Quality Not available.
Flu Activity Not available.
METAR KCBG 222156Z AUTO 09006KT 1 3/4SM UP OVC006 02/M02 A2960 RMK AO2

More Conditions Fewer Conditions

10-Day Weather Forecast

Almanac

Astronomy

Dec. 22, 2014 Rise Set
Actual Time
Civil Twilight
Nautical Twilight
Astronomical Twilight
Moon
Length of Visible Light
Length of Day
Tomorrow will be .
, % of the Moon is Illuminated

Today's Extremes

State Highs State Lows

Community

WunderPhotos

Upload Photos

1,779,691 photos uploaded!

WunderBlogs® & News

Nearby

Air Quality

  Air Quality AQ Index Pollutant
Not available.

Snow Depth

Station Depth Elevation

Earthquake Activity

City Distance Mag. Time & Date
Minimum magnitude displayed is 2.5.

Coastal Water Temperatures

Place Temperature

Nearby Weather Stations